sensor_id;sensor_type;location;lat;lon;timestamp;pressure;altitude;pressure_sealevel;temperature;humidity
13348;BME280;6743;49.934;9.138;2023-04-01T00:00:58;98836.25;;;10.16;100.00
13348;BME280;6743;49.934;9.138;2023-04-01T00:03:25;98837.25;;;10.15;100.00
13348;BME280;6743;49.934;9.138;2023-04-01T00:05:52;98833.78;;;10.14;100.00
13348;BME280;6743;49.934;9.138;2023-04-01T00:08:18;98823.56;;;10.11;100.00
13348;BME280;6743;49.934;9.138;2023-04-01T00:10:44;98832.34;;;10.12;100.00
13348;BME280;6743;49.934;9.138;2023-04-01T00:13:10;98827.03;;;10.12;100.00
13348;BME280;6743;49.934;9.138;2023-04-01T00:15:37;98828.03;;;10.11;100.00
13348;BME280;6743;49.934;9.138;2023-04-01T00:18:03;98830.69;;;10.11;100.00
13348;BME280;6743;49.934;9.138;2023-04-01T00:20:30;98833.34;;;10.11;100.00
13348;BME280;6743;49.934;9.138;2023-04-01T00:22:56;98825.38;;;10.11;100.00
13348;BME280;6743;49.934;9.138;2023-04-01T00:25:23;98819.09;;;10.12;100.00
13348;BME280;6743;49.934;9.138;2023-04-01T00:27:48;98822.75;;;10.11;100.00
13348;BME280;6743;49.934;9.138;2023-04-01T00:30:15;98821.94;;;10.10;100.00
13348;BME280;6743;49.934;9.138;2023-04-01T00:32:42;98828.44;;;10.08;100.00
13348;BME280;6743;49.934;9.138;2023-04-01T00:35:08;98818.03;;;10.06;100.00
13348;BME280;6743;49.934;9.138;2023-04-01T00:37:35;98819.87;;;10.06;100.00
13348;BME280;6743;49.934;9.138;2023-04-01T00:40:02;98823.34;;;10.06;100.00
13348;BME280;6743;49.934;9.138;2023-04-01T00:42:29;98822.53;;;10.06;100.00
13348;BME280;6743;49.934;9.138;2023-04-01T00:44:55;98822.91;;;10.03;100.00
13348;BME280;6743;49.934;9.138;2023-04-01T00:47:22;98822.72;;;10.04;100.00
13348;BME280;6743;49.934;9.138;2023-04-01T00:49:51;98820.25;;;10.03;100.00
13348;BME280;6743;49.934;9.138;2023-04-01T00:52:22;98817.00;;;10.01;100.00
13348;BME280;6743;49.934;9.138;2023-04-01T00:54:51;98813.53;;;10.00;100.00
13348;BME280;6743;49.934;9.138;2023-04-01T00:57:23;98815.78;;;10.03;100.00
13348;BME280;6743;49.934;9.138;2023-04-01T00:59:54;98820.47;;;10.01;100.00
13348;BME280;6743;49.934;9.138;2023-04-01T01:02:20;98815.78;;;10.03;100.00
13348;BME280;6743;49.934;9.138;2023-04-01T01:04:47;98820.25;;;10.03;100.00
13348;BME280;6743;49.934;9.138;2023-04-01T01:07:21;98807.81;;;10.03;100.00
13348;BME280;6743;49.934;9.138;2023-04-01T01:09:56;98810.88;;;10.00;100.00
13348;BME280;6743;49.934;9.138;2023-04-01T01:12:31;98806.22;;;10.02;100.00
13348;BME280;6743;49.934;9.138;2023-04-01T01:15:06;98825.78;;;10.01;100.00
13348;BME280;6743;49.934;9.138;2023-04-01T01:17:44;98811.06;;;9.99;100.00
13348;BME280;6743;49.934;9.138;2023-04-01T01:20:48;98817.00;;;10.01;100.00
13348;BME280;6743;49.934;9.138;2023-04-01T01:23:50;98816.19;;;10.00;100.00
13348;BME280;6743;49.934;9.138;2023-04-01T01:26:52;98803.31;;;9.97;100.00
13348;BME280;6743;49.934;9.138;2023-04-01T01:29:35;98813.53;;;10.00;100.00
13348;BME280;6743;49.934;9.138;2023-04-01T01:32:07;98806.59;;;9.99;100.00
13348;BME280;6743;49.934;9.138;2023-04-01T01:34:40;98803.94;;;9.99;100.00
13348;BME280;6743;49.934;9.138;2023-04-01T01:37:16;98811.25;;;9.97;100.00
13348;BME280;6743;49.934;9.138;2023-04-01T01:39:46;98806.78;;;9.98;100.00
13348;BME280;6743;49.934;9.138;2023-04-01T01:42:16;98804.31;;;9.96;100.00
13348;BME280;6743;49.934;9.138;2023-04-01T01:44:44;98799.03;;;9.96;100.00
13348;BME280;6743;49.934;9.138;2023-04-01T01:47:12;98803.53;;;9.96;100.00
13348;BME280;6743;49.934;9.138;2023-04-01T01:49:40;98801.69;;;9.96;100.00
13348;BME280;6743;49.934;9.138;2023-04-01T01:52:07;98733.44;;;9.57;100.00
13348;BME280;6743;49.934;9.138;2023-04-01T01:54:34;98802.50;;;9.97;100.00
13348;BME280;6743;49.934;9.138;2023-04-01T01:57:04;98806.78;;;9.98;100.00
13348;BME280;6743;49.934;9.138;2023-04-01T01:59:32;98803.31;;;9.97;100.00
13348;BME280;6743;49.934;9.138;2023-04-01T02:02:02;98807.59;;;9.98;100.00
13348;BME280;6743;49.934;9.138;2023-04-01T02:04:34;98803.31;;;9.97;100.00
13348;BME280;6743;49.934;9.138;2023-04-01T02:07:02;98811.06;;;9.99;100.00
13348;BME280;6743;49.934;9.138;2023-04-01T02:09:30;98791.91;;;9.97;100.00
13348;BME280;6743;49.934;9.138;2023-04-01T02:11:58;98795.19;;;9.99;100.00
13348;BME280;6743;49.934;9.138;2023-04-01T02:14:28;98806.59;;;9.99;100.00
13348;BME280;6743;49.934;9.138;2023-04-01T02:16:59;98801.47;;;9.98;100.00
13348;BME280;6743;49.934;9.138;2023-04-01T02:19:31;98797.19;;;9.97;100.00
13348;BME280;6743;49.934;9.138;2023-04-01T02:22:01;98802.31;;;9.98;100.00
13348;BME280;6743;49.934;9.138;2023-04-01T02:24:30;98804.13;;;9.98;100.00
13348;BME280;6743;49.934;9.138;2023-04-01T02:26:57;98798.00;;;9.97;100.00
13348;BME280;6743;49.934;9.138;2023-04-01T02:29:24;98797.19;;;9.97;100.00
13348;BME280;6743;49.934;9.138;2023-04-01T02:31:51;98800.06;;;9.95;100.00
13348;BME280;6743;49.934;9.138;2023-04-01T02:34:18;98798.00;;;9.97;100.00
13348;BME280;6743;49.934;9.138;2023-04-01T02:36:45;98804.97;;;9.98;100.00
13348;BME280;6743;49.934;9.138;2023-04-01T02:39:13;98807.41;;;10.00;100.00
13348;BME280;6743;49.934;9.138;2023-04-01T02:41:40;98810.06;;;10.00;100.00
13348;BME280;6743;49.934;9.138;2023-04-01T02:44:11;98815.16;;;10.01;100.00
13348;BME280;6743;49.934;9.138;2023-04-01T02:46:38;98809.88;;;10.01;100.00
13348;BME280;6743;49.934;9.138;2023-04-01T02:49:04;98803.56;;;10.02;100.00
13348;BME280;6743;49.934;9.138;2023-04-01T02:51:31;98800.91;;;10.02;100.00
13348;BME280;6743;49.934;9.138;2023-04-01T02:53:57;98816.00;;;10.02;100.00
13348;BME280;6743;49.934;9.138;2023-04-01T02:56:23;98811.50;;;10.02;100.00
13348;BME280;6743;49.934;9.138;2023-04-01T02:58:50;98807.22;;;10.01;100.00
13348;BME280;6743;49.934;9.138;2023-04-01T03:01:17;98808.41;;;9.99;100.00
13348;BME280;6743;49.934;9.138;2023-04-01T03:03:43;98808.22;;;10.00;100.00
13348;BME280;6743;49.934;9.138;2023-04-01T03:06:11;98810.25;;;9.98;100.00
13348;BME280;6743;49.934;9.138;2023-04-01T03:08:37;98816.38;;;9.99;100.00
13348;BME280;6743;49.934;9.138;2023-04-01T03:11:04;98818.19;;;9.98;100.00
13348;BME280;6743;49.934;9.138;2023-04-01T03:13:30;98811.25;;;9.97;100.00
13348;BME280;6743;49.934;9.138;2023-04-01T03:15:56;98808.00;;;9.95;100.00
13348;BME280;6743;49.934;9.138;2023-04-01T03:18:26;98808.62;;;9.97;100.00
13348;BME280;6743;49.934;9.138;2023-04-01T03:20:52;98806.97;;;9.96;100.00
13348;BME280;6743;49.934;9.138;2023-04-01T03:23:18;98803.72;;;9.94;100.00
13348;BME280;6743;49.934;9.138;2023-04-01T03:25:46;98798.25;;;9.96;100.00
13348;BME280;6743;49.934;9.138;2023-04-01T03:28:13;98803.31;;;9.97;100.00
13348;BME280;6743;49.934;9.138;2023-04-01T03:30:39;98797.19;;;9.97;100.00
13348;BME280;6743;49.934;9.138;2023-04-01T03:33:06;98797.81;;;9.99;100.00
13348;BME280;6743;49.934;9.138;2023-04-01T03:35:33;98809.25;;;9.99;100.00
13348;BME280;6743;49.934;9.138;2023-04-01T03:38:01;98793.12;;;9.94;100.00
13348;BME280;6743;49.934;9.138;2023-04-01T03:40:27;98804.13;;;9.98;100.00
13348;BME280;6743;49.934;9.138;2023-04-01T03:42:53;98798.84;;;9.98;100.00
13348;BME280;6743;49.934;9.138;2023-04-01T03:45:19;98810.25;;;9.98;100.00
13348;BME280;6743;49.934;9.138;2023-04-01T03:47:45;98802.13;;;10.00;100.00
13348;BME280;6743;49.934;9.138;2023-04-01T03:50:11;98805.78;;;9.99;100.00
13348;BME280;6743;49.934;9.138;2023-04-01T03:52:38;98812.72;;;10.00;100.00
13348;BME280;6743;49.934;9.138;2023-04-01T03:55:05;98792.72;;;9.97;100.00
13348;BME280;6743;49.934;9.138;2023-04-01T03:57:31;98807.22;;;10.01;100.00
13348;BME280;6743;49.934;9.138;2023-04-01T03:59:57;98811.69;;;10.01;100.00
13348;BME280;6743;49.934;9.138;2023-04-01T04:02:23;98806.41;;;10.01;100.00
13348;BME280;6743;49.934;9.138;2023-04-01T04:04:50;98800.47;;;9.99;100.00
13348;BME280;6743;49.934;9.138;2023-04-01T04:07:16;98798.47;;;10.01;100.00
13348;BME280;6743;49.934;9.138;2023-04-01T04:09:42;98796.63;;;10.01;100.00
13348;BME280;6743;49.934;9.138;2023-04-01T04:12:08;98786.84;;;10.02;100.00
13348;BME280;6743;49.934;9.138;2023-04-01T04:14:34;98794.81;;;10.02;100.00
13348;BME280;6743;49.934;9.138;2023-04-01T04:17:00;98790.50;;;10.01;100.00
13348;BME280;6743;49.934;9.138;2023-04-01T04:19:26;98787.88;;;10.01;100.00
13348;BME280;6743;49.934;9.138;2023-04-01T04:21:52;98801.94;;;10.01;100.00
13348;BME280;6743;49.934;9.138;2023-04-01T04:24:18;98804.56;;;10.01;100.00
13348;BME280;6743;49.934;9.138;2023-04-01T04:26:45;98798.47;;;10.01;100.00
13348;BME280;6743;49.934;9.138;2023-04-01T04:29:11;98802.50;;;9.97;100.00
13348;BME280;6743;49.934;9.138;2023-04-01T04:31:37;98800.66;;;9.97;100.00
13348;BME280;6743;49.934;9.138;2023-04-01T04:34:03;98805.78;;;9.99;100.00
13348;BME280;6743;49.934;9.138;2023-04-01T04:36:29;98789.25;;;9.97;100.00
13348;BME280;6743;49.934;9.138;2023-04-01T04:38:55;98800.47;;;9.99;100.00
13348;BME280;6743;49.934;9.138;2023-04-01T04:41:21;98785.19;;;9.94;100.00
13348;BME280;6743;49.934;9.138;2023-04-01T04:43:53;98790.47;;;9.94;100.00
13348;BME280;6743;49.934;9.138;2023-04-01T04:46:20;98784.16;;;9.95;100.00
13348;BME280;6743;49.934;9.138;2023-04-01T04:48:46;98798.44;;;9.94;100.00
13348;BME280;6743;49.934;9.138;2023-04-01T04:51:15;98786.56;;;9.90;100.00
13348;BME280;6743;49.934;9.138;2023-04-01T04:53:42;98787.56;;;9.89;100.00
13348;BME280;6743;49.934;9.138;2023-04-01T04:56:08;98796.97;;;9.92;100.00
13348;BME280;6743;49.934;9.138;2023-04-01T04:58:34;98787.38;;;9.91;100.00
13348;BME280;6743;49.934;9.138;2023-04-01T05:01:06;98785.75;;;9.89;100.00
13348;BME280;6743;49.934;9.138;2023-04-01T05:03:32;98781.50;;;9.88;100.00
13348;BME280;6743;49.934;9.138;2023-04-01T05:05:58;98785.75;;;9.89;100.00
13348;BME280;6743;49.934;9.138;2023-04-01T05:08:24;98784.13;;;9.88;100.00
13348;BME280;6743;49.934;9.138;2023-04-01T05:10:51;98783.31;;;9.88;100.00
13348;BME280;6743;49.934;9.138;2023-04-01T05:13:17;98778.22;;;9.86;100.00
13348;BME280;6743;49.934;9.138;2023-04-01T05:15:43;98774.94;;;9.84;100.00
13348;BME280;6743;49.934;9.138;2023-04-01T05:18:09;98791.47;;;9.86;100.00
13348;BME280;6743;49.934;9.138;2023-04-01T05:20:36;98780.41;;;9.83;100.00
13348;BME280;6743;49.934;9.138;2023-04-01T05:23:02;98782.69;;;9.86;100.00
13348;BME280;6743;49.934;9.138;2023-04-01T05:25:28;98792.47;;;9.85;100.00
13348;BME280;6743;49.934;9.138;2023-04-01T05:27:54;98791.66;;;9.85;100.00
13348;BME280;6743;49.934;9.138;2023-04-01T05:30:20;98786.34;;;9.85;100.00
13348;BME280;6743;49.934;9.138;2023-04-01T05:32:47;98793.28;;;9.86;100.00
13348;BME280;6743;49.934;9.138;2023-04-01T05:35:13;98765.28;;;9.70;100.00
13348;BME280;6743;49.934;9.138;2023-04-01T05:37:39;98782.88;;;9.84;100.00
13348;BME280;6743;49.934;9.138;2023-04-01T05:40:06;98781.06;;;9.85;100.00
13348;BME280;6743;49.934;9.138;2023-04-01T05:42:33;98775.94;;;9.83;100.00
13348;BME280;6743;49.934;9.138;2023-04-01T05:44:59;98790.00;;;9.84;100.00
13348;BME280;6743;49.934;9.138;2023-04-01T05:47:25;98782.47;;;9.81;100.00
13348;BME280;6743;49.934;9.138;2023-04-01T05:49:51;98786.12;;;9.80;100.00
13348;BME280;6743;49.934;9.138;2023-04-01T05:52:17;98784.66;;;9.77;100.00
13348;BME280;6743;49.934;9.138;2023-04-01T05:54:43;98788.56;;;9.75;100.00
13348;BME280;6743;49.934;9.138;2023-04-01T05:57:09;98784.62;;;9.71;100.00
13348;BME280;6743;49.934;9.138;2023-04-01T05:59:35;98787.69;;;9.68;100.00
13348;BME280;6743;49.934;9.138;2023-04-01T06:02:01;98783.97;;;9.62;100.00
13348;BME280;6743;49.934;9.138;2023-04-01T06:04:34;98782.91;;;9.57;100.00
13348;BME280;6743;49.934;9.138;2023-04-01T06:07:10;98790.22;;;9.55;100.00
13348;BME280;6743;49.934;9.138;2023-04-01T06:09:37;98789.44;;;9.54;100.00
13348;BME280;6743;49.934;9.138;2023-04-01T06:12:35;98785.34;;;9.52;100.00
13348;BME280;6743;49.934;9.138;2023-04-01T06:15:18;98786.16;;;9.52;100.00
13348;BME280;6743;49.934;9.138;2023-04-01T06:20:48;98786.31;;;9.44;100.00
13348;BME280;6743;49.934;9.138;2023-04-01T06:23:37;98782.00;;;9.43;100.00
13348;BME280;6743;49.934;9.138;2023-04-01T06:26:23;98778.38;;;9.44;100.00
13348;BME280;6743;49.934;9.138;2023-04-01T06:35:31;98789.72;;;9.38;100.00
13348;BME280;6743;49.934;9.138;2023-04-01T06:38:14;98786.06;;;9.39;100.00
13348;BME280;6743;49.934;9.138;2023-04-01T06:43:37;98788.72;;;9.39;100.00
13348;BME280;6743;49.934;9.138;2023-04-01T06:46:11;98792.56;;;9.36;100.00
13348;BME280;6743;49.934;9.138;2023-04-01T06:48:54;98788.09;;;9.37;100.00
13348;BME280;6743;49.934;9.138;2023-04-01T06:51:27;98782.94;;;9.29;100.00
13348;BME280;6743;49.934;9.138;2023-04-01T06:54:02;98801.50;;;9.35;100.00
13348;BME280;6743;49.934;9.138;2023-04-01T06:56:32;98785.62;;;9.35;100.00
13348;BME280;6743;49.934;9.138;2023-04-01T06:59:02;98787.66;;;9.33;100.00
13348;BME280;6743;49.934;9.138;2023-04-01T07:01:34;98789.50;;;9.33;100.00
13348;BME280;6743;49.934;9.138;2023-04-01T07:04:05;98781.34;;;9.34;100.00
13348;BME280;6743;49.934;9.138;2023-04-01T07:06:36;98774.84;;;9.37;100.00
13348;BME280;6743;49.934;9.138;2023-04-01T07:09:06;98782.59;;;9.38;100.00
13348;BME280;6743;49.934;9.138;2023-04-01T07:11:37;98775.47;;;9.39;100.00
13348;BME280;6743;49.934;9.138;2023-04-01T07:14:12;98774.47;;;9.40;100.00
13348;BME280;6743;49.934;9.138;2023-04-01T07:16:41;98778.12;;;9.39;100.00
13348;BME280;6743;49.934;9.138;2023-04-01T07:19:14;98773.66;;;9.39;100.00
13348;BME280;6743;49.934;9.138;2023-04-01T07:21:46;98784.44;;;9.38;100.00
13348;BME280;6743;49.934;9.138;2023-04-01T07:24:17;98774.47;;;9.40;100.00
13348;BME280;6743;49.934;9.138;2023-04-01T07:26:47;98778.12;;;9.39;100.00
13348;BME280;6743;49.934;9.138;2023-04-01T07:29:14;98769.97;;;9.40;100.00
13348;BME280;6743;49.934;9.138;2023-04-01T07:34:55;98784.03;;;9.41;100.00
13348;BME280;6743;49.934;9.138;2023-04-01T07:37:30;98775.09;;;9.42;100.00
13348;BME280;6743;49.934;9.138;2023-04-01T07:40:07;98790.78;;;9.43;100.00
13348;BME280;6743;49.934;9.138;2023-04-01T07:42:47;98789.78;;;9.44;100.00
13348;BME280;6743;49.934;9.138;2023-04-01T07:45:23;98784.25;;;9.39;100.00
13348;BME280;6743;49.934;9.138;2023-04-01T07:48:08;98798.13;;;9.48;100.00
13348;BME280;6743;49.934;9.138;2023-04-01T07:50:46;98801.22;;;9.52;100.00
13348;BME280;6743;49.934;9.138;2023-04-01T07:53:22;98797.56;;;9.53;100.00
13348;BME280;6743;49.934;9.138;2023-04-01T07:56:01;98789.44;;;9.54;100.00
13348;BME280;6743;49.934;9.138;2023-04-01T07:58:35;98795.34;;;9.56;100.00
13348;BME280;6743;49.934;9.138;2023-04-01T08:01:11;98783.28;;;9.47;100.00
13348;BME280;6743;49.934;9.138;2023-04-01T08:03:54;98802.69;;;9.54;100.00
13348;BME280;6743;49.934;9.138;2023-04-01T08:06:32;98792.88;;;9.55;100.00
13348;BME280;6743;49.934;9.138;2023-04-01T08:09:06;98797.97;;;9.56;100.00
13348;BME280;6743;49.934;9.138;2023-04-01T08:11:45;98785.72;;;9.48;100.00
13348;BME280;6743;49.934;9.138;2023-04-01T08:14:20;98793.72;;;9.62;100.00
13348;BME280;6743;49.934;9.138;2023-04-01T08:16:56;98800.69;;;9.63;100.00
13348;BME280;6743;49.934;9.138;2023-04-01T08:19:31;98798.47;;;9.66;100.00
13348;BME280;6743;49.934;9.138;2023-04-01T08:22:09;98796.84;;;9.65;100.00
13348;BME280;6743;49.934;9.138;2023-04-01T08:24:40;98804.00;;;9.71;100.00
13348;BME280;6743;49.934;9.138;2023-04-01T08:27:13;98802.16;;;9.72;100.00
13348;BME280;6743;49.934;9.138;2023-04-01T08:29:46;98796.69;;;9.73;100.00
13348;BME280;6743;49.934;9.138;2023-04-01T08:32:18;98804.44;;;9.75;100.00
13348;BME280;6743;49.934;9.138;2023-04-01T08:34:51;98812.78;;;9.78;100.00
13348;BME280;6743;49.934;9.138;2023-04-01T08:37:24;98804.47;;;9.81;100.00
13348;BME280;6743;49.934;9.138;2023-04-01T08:39:58;98804.47;;;9.81;100.00
13348;BME280;6743;49.934;9.138;2023-04-01T08:42:43;98770.72;;;9.62;100.00
13348;BME280;6743;49.934;9.138;2023-04-01T08:45:29;98800.22;;;9.87;100.00
13348;BME280;6743;49.934;9.138;2023-04-01T08:48:22;98809.81;;;9.88;100.00
13348;BME280;6743;49.934;9.138;2023-04-01T08:56:34;98818.16;;;9.92;100.00
13348;BME280;6743;49.934;9.138;2023-04-01T08:59:17;98812.03;;;9.91;100.00
13348;BME280;6743;49.934;9.138;2023-04-01T09:02:01;98817.16;;;9.93;100.00
13348;BME280;6743;49.934;9.138;2023-04-01T09:04:46;98826.75;;;9.94;100.00
13348;BME280;6743;49.934;9.138;2023-04-01T09:07:29;98822.25;;;9.94;100.00
13348;BME280;6743;49.934;9.138;2023-04-01T09:10:23;98831.03;;;9.95;100.00
13348;BME280;6743;49.934;9.138;2023-04-01T09:13:02;98826.75;;;9.94;100.00
13348;BME280;6743;49.934;9.138;2023-04-01T09:15:47;98832.88;;;9.94;100.00
13348;BME280;6743;49.934;9.138;2023-04-01T09:18:49;98831.03;;;9.95;100.00
13348;BME280;6743;49.934;9.138;2023-04-01T09:21:32;98833.28;;;9.98;100.00
13348;BME280;6743;49.934;9.138;2023-04-01T09:24:25;98814.66;;;9.84;100.00
13348;BME280;6743;49.934;9.138;2023-04-01T09:27:03;98831.25;;;10.00;100.00
13348;BME280;6743;49.934;9.138;2023-04-01T09:32:38;98830.47;;;10.06;100.00
13348;BME280;6743;49.934;9.138;2023-04-01T09:35:21;98817.84;;;10.08;100.00
13348;BME280;6743;49.934;9.138;2023-04-01T09:37:53;98826.19;;;10.05;100.00
13348;BME280;6743;49.934;9.138;2023-04-01T09:40:31;98837.22;;;10.08;100.00
13348;BME280;6743;49.934;9.138;2023-04-01T09:43:13;98826.63;;;10.08;100.00
13348;BME280;6743;49.934;9.138;2023-04-01T09:45:47;98832.53;;;10.10;100.00
13348;BME280;6743;49.934;9.138;2023-04-01T09:48:25;98839.66;;;10.10;100.00
13348;BME280;6743;49.934;9.138;2023-04-01T09:51:02;98836.81;;;10.11;100.00
13348;BME280;6743;49.934;9.138;2023-04-01T09:53:47;98839.28;;;10.13;100.00
13348;BME280;6743;49.934;9.138;2023-04-01T10:00:06;98839.34;;;10.19;100.00
13348;BME280;6743;49.934;9.138;2023-04-01T10:02:59;98848.56;;;10.30;100.00
13348;BME280;6743;49.934;9.138;2023-04-01T10:06:06;98852.44;;;10.34;100.00
13348;BME280;6743;49.934;9.138;2023-04-01T10:12:14;98861.25;;;10.41;100.00
13348;BME280;6743;49.934;9.138;2023-04-01T10:18:21;98847.38;;;10.39;100.00
13348;BME280;6743;49.934;9.138;2023-04-01T10:21:25;98844.13;;;10.37;100.00
13348;BME280;6743;49.934;9.138;2023-04-01T10:24:04;98844.13;;;10.37;100.00
13348;BME280;6743;49.934;9.138;2023-04-01T10:26:57;98850.63;;;10.35;100.00
13348;BME280;6743;49.934;9.138;2023-04-01T10:29:57;98849.16;;;10.32;100.00
13348;BME280;6743;49.934;9.138;2023-04-01T10:33:04;98843.69;;;10.34;100.00
13348;BME280;6743;49.934;9.138;2023-04-01T10:39:17;98842.06;;;10.39;100.00
13348;BME280;6743;49.934;9.138;2023-04-01T10:48:18;98849.03;;;10.47;100.00
13348;BME280;6743;49.934;9.138;2023-04-01T10:51:13;98845.19;;;10.49;100.00
13348;BME280;6743;49.934;9.138;2023-04-01T10:54:15;98850.47;;;10.49;100.00
13348;BME280;6743;49.934;9.138;2023-04-01T10:56:50;98847.84;;;10.49;100.00
13348;BME280;6743;49.934;9.138;2023-04-01T10:59:50;98851.91;;;10.52;100.00
13348;BME280;6743;49.934;9.138;2023-04-01T11:02:57;98845.19;;;10.56;100.00
13348;BME280;6743;49.934;9.138;2023-04-01T11:18:07;98853.19;;;10.69;100.00
13348;BME280;6743;49.934;9.138;2023-04-01T11:21:09;98849.53;;;10.70;100.00
13348;BME280;6743;49.934;9.138;2023-04-01T11:27:06;98849.13;;;10.73;100.00
13348;BME280;6743;49.934;9.138;2023-04-01T11:29:46;98854.22;;;10.75;100.00
13348;BME280;6743;49.934;9.138;2023-04-01T11:32:31;98863.81;;;10.76;100.00
13348;BME280;6743;49.934;9.138;2023-04-01T11:35:19;98857.69;;;10.75;100.00
13348;BME280;6743;49.934;9.138;2023-04-01T11:37:54;98864.00;;;10.74;100.00
13348;BME280;6743;49.934;9.138;2023-04-01T11:40:28;98865.03;;;10.73;100.00
13348;BME280;6743;49.934;9.138;2023-04-01T11:43:01;98866.84;;;10.73;100.00
13348;BME280;6743;49.934;9.138;2023-04-01T11:45:36;98867.69;;;10.73;100.00
13348;BME280;6743;49.934;9.138;2023-04-01T11:48:30;98867.50;;;10.75;100.00
13348;BME280;6743;49.934;9.138;2023-04-01T11:51:12;98869.31;;;10.74;100.00
13348;BME280;6743;49.934;9.138;2023-04-01T11:53:47;98870.34;;;10.73;100.00
13348;BME280;6743;49.934;9.138;2023-04-01T11:56:31;98870.56;;;10.72;100.00
13348;BME280;6743;49.934;9.138;2023-04-01T12:02:13;98875.47;;;10.81;100.00
13348;BME280;6743;49.934;9.138;2023-04-01T12:04:59;98880.37;;;10.84;100.00
13348;BME280;6743;49.934;9.138;2023-04-01T12:07:44;98886.72;;;10.90;100.00
13348;BME280;6743;49.934;9.138;2023-04-01T12:10:18;98893.88;;;10.96;100.00
13348;BME280;6743;49.934;9.138;2023-04-01T12:12:51;98880.22;;;10.99;100.00
13348;BME280;6743;49.934;9.138;2023-04-01T12:15:28;98885.31;;;11.00;100.00
13348;BME280;6743;49.934;9.138;2023-04-01T12:18:00;98894.09;;;11.07;100.00
13348;BME280;6743;49.934;9.138;2023-04-01T12:20:36;98894.53;;;11.11;100.00
13348;BME280;6743;49.934;9.138;2023-04-01T12:23:17;98898.59;;;11.14;100.00
13348;BME280;6743;49.934;9.138;2023-04-01T12:26:19;98904.72;;;11.14;100.00
13348;BME280;6743;49.934;9.138;2023-04-01T12:29:07;98909.84;;;11.16;100.00
13348;BME280;6743;49.934;9.138;2023-04-01T12:31:40;98902.69;;;11.16;100.00
13348;BME280;6743;49.934;9.138;2023-04-01T12:34:45;98907.81;;;11.18;100.00
13348;BME280;6743;49.934;9.138;2023-04-01T12:37:20;98904.16;;;11.19;100.00
13348;BME280;6743;49.934;9.138;2023-04-01T12:40:01;98905.97;;;11.18;100.00
13348;BME280;6743;49.934;9.138;2023-04-01T12:42:45;98891.69;;;11.13;100.00
13348;BME280;6743;49.934;9.138;2023-04-01T12:45:28;98894.53;;;11.18;100.00
13348;BME280;6743;49.934;9.138;2023-04-01T12:48:05;98908.63;;;11.18;100.00
13348;BME280;6743;49.934;9.138;2023-04-01T12:50:56;98908.63;;;11.18;100.00
13348;BME280;6743;49.934;9.138;2023-04-01T12:53:37;98903.91;;;11.20;100.00
13348;BME280;6743;49.934;9.138;2023-04-01T12:56:10;98906.38;;;11.22;100.00
13348;BME280;6743;49.934;9.138;2023-04-01T12:59:06;98911.69;;;11.22;100.00
13348;BME280;6743;49.934;9.138;2023-04-01T13:02:01;98911.28;;;11.18;100.00
13348;BME280;6743;49.934;9.138;2023-04-01T13:07:34;98915.97;;;11.16;100.00
13348;BME280;6743;49.934;9.138;2023-04-01T13:10:14;98907.81;;;11.11;100.00
13348;BME280;6743;49.934;9.138;2023-04-01T13:15:37;98912.47;;;11.09;100.00
13348;BME280;6743;49.934;9.138;2023-04-01T13:18:17;98909.19;;;11.07;100.00
13348;BME280;6743;49.934;9.138;2023-04-01T13:20:54;98915.12;;;11.09;100.00
13348;BME280;6743;49.934;9.138;2023-04-01T13:23:33;98911.28;;;11.12;100.00
13348;BME280;6743;49.934;9.138;2023-04-01T13:26:10;98909.84;;;11.16;100.00
13348;BME280;6743;49.934;9.138;2023-04-01T13:28:43;98902.87;;;11.15;100.00
13348;BME280;6743;49.934;9.138;2023-04-01T13:31:20;98911.66;;;11.15;100.00
13348;BME280;6743;49.934;9.138;2023-04-01T13:34:03;98920.66;;;11.14;100.00
13348;BME280;6743;49.934;9.138;2023-04-01T13:36:43;98916.38;;;11.13;100.00
13348;BME280;6743;49.934;9.138;2023-04-01T13:39:24;98910.03;;;11.14;100.00
13348;BME280;6743;49.934;9.138;2023-04-01T13:42:11;98924.75;;;11.17;100.00
13348;BME280;6743;49.934;9.138;2023-04-01T13:44:44;98933.34;;;11.19;100.00
13348;BME280;6743;49.934;9.138;2023-04-01T13:47:33;98925.16;;;11.20;100.00
13348;BME280;6743;49.934;9.138;2023-04-01T13:50:24;98931.72;;;11.24;100.00
13348;BME280;6743;49.934;9.138;2023-04-01T13:53:15;98937.66;;;11.26;100.00
13348;BME280;6743;49.934;9.138;2023-04-01T13:55:57;98938.25;;;11.28;100.00
13348;BME280;6743;49.934;9.138;2023-04-01T13:58:40;98935.81;;;11.27;100.00
13348;BME280;6743;49.934;9.138;2023-04-01T14:01:17;98944.34;;;11.22;100.00
13348;BME280;6743;49.934;9.138;2023-04-01T14:06:51;98947.41;;;11.13;100.00
13348;BME280;6743;49.934;9.138;2023-04-01T14:09:36;98950.66;;;11.08;100.00
13348;BME280;6743;49.934;9.138;2023-04-01T14:12:15;98947.59;;;11.04;100.00
13348;BME280;6743;49.934;9.138;2023-04-01T14:15:05;98948.78;;;11.02;100.00
13348;BME280;6743;49.934;9.138;2023-04-01T14:17:46;98953.28;;;11.01;100.00
13348;BME280;6743;49.934;9.138;2023-04-01T14:20:29;98950.81;;;11.00;100.00
13348;BME280;6743;49.934;9.138;2023-04-01T14:23:09;98948.78;;;11.02;100.00
13348;BME280;6743;49.934;9.138;2023-04-01T14:26:00;98940.63;;;11.03;100.00
13348;BME280;6743;49.934;9.138;2023-04-01T14:28:34;98955.34;;;11.06;100.00
13348;BME280;6743;49.934;9.138;2023-04-01T14:31:31;98934.13;;;11.06;100.00
13348;BME280;6743;49.934;9.138;2023-04-01T14:34:12;98950.66;;;11.08;100.00
13348;BME280;6743;49.934;9.138;2023-04-01T14:36:50;98946.97;;;11.09;100.00
13348;BME280;6743;49.934;9.138;2023-04-01T14:39:38;98958.41;;;11.10;100.00
13348;BME280;6743;49.934;9.138;2023-04-01T14:42:23;98959.03;;;11.12;100.00
13348;BME280;6743;49.934;9.138;2023-04-01T14:45:19;98960.69;;;11.13;100.00
13348;BME280;6743;49.934;9.138;2023-04-01T14:47:51;98958.63;;;11.15;100.00
13348;BME280;6743;49.934;9.138;2023-04-01T14:50:23;98966.81;;;11.13;100.00
13348;BME280;6743;49.934;9.138;2023-04-01T14:52:58;98969.47;;;11.13;100.00
13348;BME280;6743;49.934;9.138;2023-04-01T14:55:31;98968.22;;;11.16;100.00
13348;BME280;6743;49.934;9.138;2023-04-01T14:58:04;98961.09;;;11.16;100.00